Time;durP1;ratioP1;P1;durP2;ratioP2;P2;SDS_P1;SDS_P2;PMS_P1;PMS_P2;Temp;Humidity;BMP_temperature;BMP_pressure;BME280_temperature;BME280_humidity;BME280_pressure;Samples;Min_cycle;Max_cycle;Signal;HPM_P1;HPM_P2
2023/05/12 00:01:20;;;;;;;10.50;5.30;;;13.20;68.00;;;;;;5015061;28;20076;-75
2023/05/12 00:03:47;;;;;;;8.63;5.55;;;13.20;67.60;;;;;;5005699;28;20056;-76
2023/05/12 00:06:14;;;;;;;14.48;5.75;;;13.20;67.90;;;;;;5001490;28;20405;-75
2023/05/12 00:08:41;;;;;;;8.07;5.10;;;13.10;67.50;;;;;;4990310;28;20183;-75
2023/05/12 00:11:08;;;;;;;10.60;5.70;;;13.10;67.60;;;;;;5019402;28;20049;-75
2023/05/12 00:13:35;;;;;;;10.55;5.47;;;13.10;67.70;;;;;;5009463;28;20467;-75
2023/05/12 00:16:03;;;;;;;9.45;5.72;;;13.10;67.70;;;;;;5016852;28;20389;-75
2023/05/12 00:18:30;;;;;;;9.93;5.40;;;13.10;66.60;;;;;;5016228;28;20570;-75
2023/05/12 00:20:57;;;;;;;13.27;5.68;;;13.10;67.00;;;;;;5013888;28;20469;-75
2023/05/12 00:23:23;;;;;;;11.40;5.60;;;13.10;66.80;;;;;;5016342;28;20144;-75
2023/05/12 00:25:50;;;;;;;10.95;5.30;;;13.10;66.80;;;;;;5017128;28;20498;-75
2023/05/12 00:28:18;;;;;;;10.77;5.55;;;13.00;66.80;;;;;;4995694;28;20490;-75
2023/05/12 00:30:45;;;;;;;9.63;5.88;;;13.00;66.30;;;;;;5009929;28;20045;-76
2023/05/12 00:33:12;;;;;;;12.32;5.50;;;13.00;66.20;;;;;;4993618;28;20775;-75
2023/05/12 00:35:39;;;;;;;9.00;5.10;;;13.00;65.90;;;;;;5008594;28;20128;-75
2023/05/12 00:38:06;;;;;;;13.15;5.13;;;13.00;65.70;;;;;;5002988;28;20061;-76
2023/05/12 00:40:32;;;;;;;8.68;5.38;;;13.00;66.10;;;;;;5005877;28;20057;-76
2023/05/12 00:42:59;;;;;;;8.15;4.95;;;13.00;65.70;;;;;;5001569;28;20045;-76
2023/05/12 00:45:28;;;;;;;9.00;5.10;;;13.00;66.00;;;;;;5004159;28;20049;-76
2023/05/12 00:47:56;;;;;;;10.25;5.28;;;12.90;66.20;;;;;;4992948;28;20052;-75
2023/05/12 00:50:23;;;;;;;11.05;5.47;;;12.90;65.40;;;;;;5019284;28;20049;-76
2023/05/12 00:52:50;;;;;;;7.78;5.30;;;12.90;65.80;;;;;;5012687;28;20399;-75
2023/05/12 00:55:17;;;;;;;7.63;4.63;;;12.90;66.20;;;;;;5014121;28;20064;-75
2023/05/12 00:57:44;;;;;;;7.35;4.90;;;12.80;65.70;;;;;;4989861;28;20053;-75
2023/05/12 01:00:12;;;;;;;15.07;5.03;;;12.80;66.30;;;;;;5015150;28;20048;-75
2023/05/12 01:02:39;;;;;;;7.97;4.78;;;12.80;65.90;;;;;;5011819;28;20534;-75
2023/05/12 01:05:08;;;;;;;11.43;5.55;;;12.70;65.80;;;;;;5010389;28;20134;-75
2023/05/12 01:07:37;;;;;;;14.15;5.32;;;12.70;66.20;;;;;;5015668;28;20057;-75
2023/05/12 01:10:19;;;;;;;8.80;4.60;;;12.70;66.30;;;;;;5013297;28;20119;-75
2023/05/12 01:12:47;;;;;;;9.90;5.47;;;12.60;66.50;;;;;;5009798;28;20133;-75
2023/05/12 01:15:14;;;;;;;10.10;5.90;;;12.60;66.40;;;;;;5006925;28;20089;-75
2023/05/12 01:17:46;;;;;;;11.70;5.38;;;12.60;66.70;;;;;;5010752;28;20530;-75
2023/05/12 01:20:17;;;;;;;9.07;4.80;;;12.50;66.20;;;;;;5009849;28;20073;-75
2023/05/12 01:22:46;;;;;;;9.48;4.88;;;12.50;66.60;;;;;;5011040;28;20056;-75
2023/05/12 01:25:14;;;;;;;10.48;4.60;;;12.40;66.60;;;;;;5007883;28;20049;-75
2023/05/12 01:27:41;;;;;;;13.60;5.68;;;12.40;67.00;;;;;;5016652;28;20155;-75
2023/05/12 01:30:11;;;;;;;7.80;4.97;;;12.30;67.50;;;;;;5000238;28;20052;-75
2023/05/12 01:32:39;;;;;;;14.20;5.50;;;12.20;68.00;;;;;;5015303;28;20053;-75
2023/05/12 01:35:06;;;;;;;10.68;5.45;;;12.20;67.80;;;;;;5010163;28;20060;-75
2023/05/12 01:37:33;;;;;;;10.27;5.13;;;12.10;68.70;;;;;;5012639;28;20365;-75
2023/05/12 01:40:00;;;;;;;13.10;5.43;;;12.00;68.90;;;;;;4992011;28;20406;-75
2023/05/12 01:42:27;;;;;;;9.27;5.47;;;11.90;68.70;;;;;;5018670;28;20050;-75
2023/05/12 01:44:54;;;;;;;9.02;5.30;;;11.80;69.10;;;;;;5012112;28;20046;-75
2023/05/12 01:47:21;;;;;;;12.13;4.88;;;11.80;69.30;;;;;;5014299;28;20037;-75
2023/05/12 01:49:48;;;;;;;10.65;4.72;;;11.70;68.40;;;;;;5017300;28;20454;-75
2023/05/12 01:52:14;;;;;;;7.32;5.35;;;11.70;69.00;;;;;;5014964;28;20052;-75
2023/05/12 01:54:41;;;;;;;8.50;5.00;;;11.60;69.00;;;;;;4997216;28;20049;-75
2023/05/12 01:57:08;;;;;;;9.77;4.82;;;11.60;68.80;;;;;;4989482;28;20326;-75
2023/05/12 01:59:35;;;;;;;10.45;4.80;;;11.60;68.70;;;;;;5005037;28;20050;-75
2023/05/12 02:02:02;;;;;;;14.43;5.78;;;11.60;69.00;;;;;;4994567;28;20072;-75
2023/05/12 02:04:29;;;;;;;12.90;4.82;;;11.50;69.40;;;;;;5013797;28;20049;-75
2023/05/12 02:06:56;;;;;;;9.38;4.95;;;11.40;68.90;;;;;;4991879;28;20052;-75
2023/05/12 02:09:23;;;;;;;8.63;4.78;;;11.40;69.30;;;;;;5007285;28;20483;-75
2023/05/12 02:11:49;;;;;;;10.35;4.80;;;11.40;69.10;;;;;;5013256;28;20084;-75
2023/05/12 02:14:16;;;;;;;17.23;4.90;;;11.40;69.30;;;;;;5012109;28;20046;-75
2023/05/12 02:16:43;;;;;;;12.23;4.90;;;11.40;69.30;;;;;;5012965;28;20057;-75
2023/05/12 02:19:10;;;;;;;9.23;5.32;;;11.30;68.90;;;;;;5011994;28;20140;-75
2023/05/12 02:21:37;;;;;;;12.65;5.47;;;11.30;69.20;;;;;;5004942;28;20060;-75
2023/05/12 02:24:04;;;;;;;7.78;5.10;;;11.30;69.10;;;;;;5010705;28;20111;-75
2023/05/12 02:26:31;;;;;;;9.05;5.38;;;11.30;68.90;;;;;;5010848;28;20550;-75
2023/05/12 02:28:57;;;;;;;12.48;5.03;;;11.20;68.90;;;;;;5008421;28;20045;-75
2023/05/12 02:31:24;;;;;;;17.05;5.10;;;11.20;69.80;;;;;;4990434;28;20042;-75
2023/05/12 02:33:51;;;;;;;7.32;5.20;;;11.10;68.70;;;;;;5000578;28;20442;-75
2023/05/12 02:36:18;;;;;;;9.48;5.10;;;11.10;69.10;;;;;;5008627;28;20103;-75
2023/05/12 02:38:45;;;;;;;12.13;5.07;;;11.10;69.00;;;;;;4984214;28;20060;-75
2023/05/12 02:41:12;;;;;;;10.57;5.32;;;11.00;69.20;;;;;;5009549;28;20053;-75
2023/05/12 02:43:39;;;;;;;15.10;5.45;;;10.90;69.80;;;;;;5008842;28;20050;-75
2023/05/12 02:46:05;;;;;;;10.10;5.32;;;10.90;69.50;;;;;;5009337;28;20057;-75
2023/05/12 02:48:32;;;;;;;9.27;5.63;;;10.90;70.10;;;;;;4993213;28;20076;-75
2023/05/12 02:50:59;;;;;;;11.60;5.07;;;10.80;70.00;;;;;;5010240;28;20061;-75
2023/05/12 02:53:26;;;;;;;12.52;6.28;;;10.80;70.00;;;;;;4993588;28;20061;-75
2023/05/12 02:55:53;;;;;;;10.95;6.03;;;10.80;70.10;;;;;;4994264;28;20049;-75
2023/05/12 02:58:20;;;;;;;8.25;5.70;;;10.80;71.10;;;;;;4997513;28;20061;-75
2023/05/12 03:00:47;;;;;;;10.25;5.38;;;10.70;70.30;;;;;;5011408;28;20057;-74
2023/05/12 03:03:25;;;;;;;28.30;6.80;;;10.70;70.60;;;;;;4998044;28;20513;-74
2023/05/12 03:05:52;;;;;;;13.73;6.22;;;10.60;70.90;;;;;;4996481;28;20128;-75
2023/05/12 03:08:19;;;;;;;15.18;6.85;;;10.60;70.90;;;;;;4992081;28;20074;-75
2023/05/12 03:10:46;;;;;;;14.40;6.70;;;10.60;70.70;;;;;;5013446;28;20410;-75
2023/05/12 03:13:13;;;;;;;13.50;6.10;;;10.50;71.20;;;;;;5012709;28;20494;-75
2023/05/12 03:15:40;;;;;;;14.38;6.70;;;10.50;70.70;;;;;;4997636;28;20050;-75
2023/05/12 03:18:06;;;;;;;11.43;5.90;;;10.50;71.10;;;;;;5016777;28;20386;-75
2023/05/12 03:20:33;;;;;;;14.07;6.60;;;10.40;71.10;;;;;;5008871;28;20053;-74
2023/05/12 03:23:00;;;;;;;11.38;5.90;;;10.40;71.60;;;;;;5017133;28;20478;-74
2023/05/12 03:25:27;;;;;;;14.27;6.30;;;10.40;72.10;;;;;;5007953;28;20443;-74
2023/05/12 03:27:54;;;;;;;23.13;6.97;;;10.30;71.60;;;;;;5009366;28;20079;-75
2023/05/12 03:30:21;;;;;;;25.05;7.13;;;10.30;71.60;;;;;;5000999;28;20041;-75
2023/05/12 03:32:48;;;;;;;18.00;6.57;;;10.20;72.20;;;;;;5012947;28;20057;-73
2023/05/12 03:35:15;;;;;;;14.77;5.55;;;10.20;72.50;;;;;;5003458;28;20072;-74
2023/05/12 03:37:41;;;;;;;17.38;7.88;;;10.10;72.20;;;;;;5016612;28;20053;-74
2023/05/12 03:40:09;;;;;;;22.05;7.15;;;10.10;72.20;;;;;;5014682;28;20056;-74
2023/05/12 03:42:36;;;;;;;14.15;6.85;;;10.10;72.50;;;;;;5010381;28;20053;-75
2023/05/12 03:45:04;;;;;;;12.15;6.68;;;10.10;73.00;;;;;;5008138;28;20050;-74
2023/05/12 03:47:31;;;;;;;22.67;7.18;;;10.00;72.70;;;;;;5000578;28;20157;-74
2023/05/12 03:49:58;;;;;;;16.30;7.22;;;10.00;72.70;;;;;;5012495;28;20050;-74
2023/05/12 03:52:24;;;;;;;12.57;7.15;;;10.00;72.70;;;;;;4997985;28;20437;-74
2023/05/12 03:54:51;;;;;;;19.52;6.47;;;10.00;73.20;;;;;;5015800;28;20141;-74
2023/05/12 03:57:18;;;;;;;13.55;6.53;;;10.00;73.30;;;;;;4995740;28;20438;-74
2023/05/12 03:59:45;;;;;;;10.32;6.60;;;10.00;73.20;;;;;;5009438;28;20460;-74
2023/05/12 04:02:12;;;;;;;15.23;7.00;;;10.00;72.70;;;;;;4995976;28;20754;-74
2023/05/12 04:04:39;;;;;;;19.85;7.55;;;10.00;72.70;;;;;;5010304;28;20061;-74
2023/05/12 04:07:06;;;;;;;13.23;7.32;;;10.00;72.80;;;;;;5010443;28;20080;-74
2023/05/12 04:09:33;;;;;;;11.88;7.43;;;10.00;73.50;;;;;;4987823;28;20072;-75
2023/05/12 04:12:00;;;;;;;18.42;6.95;;;10.00;73.60;;;;;;4991792;28;20045;-75
2023/05/12 04:14:27;;;;;;;16.02;7.45;;;10.10;73.00;;;;;;5008503;28;20513;-75
2023/05/12 04:17:08;;;;;;;16.15;6.93;;;10.10;73.10;;;;;;5013198;28;20485;-75
2023/05/12 04:19:35;;;;;;;18.08;6.72;;;10.10;72.80;;;;;;5009718;28;20084;-75
2023/05/12 04:22:01;;;;;;;11.50;6.47;;;10.10;72.90;;;;;;5015720;28;20060;-75
2023/05/12 04:24:28;;;;;;;9.75;6.28;;;10.10;72.80;;;;;;5005091;28;20049;-78
2023/05/12 04:26:56;;;;;;;15.05;6.65;;;10.20;72.50;;;;;;5008858;28;20060;-75
2023/05/12 04:29:23;;;;;;;12.70;6.68;;;10.20;72.70;;;;;;4990715;28;20045;-75
2023/05/12 04:31:50;;;;;;;12.95;6.32;;;10.20;72.30;;;;;;4993838;28;20050;-75
2023/05/12 04:34:17;;;;;;;12.70;7.55;;;10.30;73.60;;;;;;4993292;28;20050;-75
2023/05/12 04:36:44;;;;;;;16.40;7.20;;;10.30;72.50;;;;;;5011077;28;20072;-75
2023/05/12 04:39:11;;;;;;;10.88;6.15;;;10.40;72.70;;;;;;5002656;28;20046;-75
2023/05/12 04:41:38;;;;;;;14.13;6.75;;;10.40;72.50;;;;;;5011127;28;20058;-75
2023/05/12 04:44:05;;;;;;;13.60;7.20;;;10.50;71.90;;;;;;4994407;28;20057;-75
2023/05/12 04:46:32;;;;;;;12.27;6.50;;;10.50;71.60;;;;;;5008889;28;20054;-75
2023/05/12 04:48:59;;;;;;;14.27;6.72;;;10.50;71.60;;;;;;5018087;28;20068;-76
2023/05/12 04:51:26;;;;;;;12.82;5.97;;;10.60;71.90;;;;;;5015681;28;20069;-76
2023/05/12 04:53:53;;;;;;;16.60;6.05;;;10.60;71.20;;;;;;5019534;28;20042;-75
2023/05/12 04:56:20;;;;;;;12.85;5.65;;;10.70;70.70;;;;;;5008477;28;20056;-76
2023/05/12 04:58:47;;;;;;;15.70;6.25;;;10.70;71.10;;;;;;5009087;28;20383;-76
2023/05/12 05:01:14;;;;;;;17.27;5.95;;;10.80;70.80;;;;;;5018862;28;20143;-79
2023/05/12 05:03:41;;;;;;;12.68;5.53;;;10.80;70.20;;;;;;5017621;28;20115;-77
2023/05/12 05:06:08;;;;;;;12.98;5.90;;;10.90;70.50;;;;;;5004330;28;20081;-78
2023/05/12 05:08:35;;;;;;;16.15;5.63;;;11.00;69.90;;;;;;5012882;28;20050;-78
2023/05/12 05:11:02;;;;;;;14.02;5.95;;;11.00;70.10;;;;;;4996963;28;20431;-78
2023/05/12 05:13:29;;;;;;;14.55;6.07;;;11.10;70.30;;;;;;4995710;28;20046;-78
2023/05/12 05:15:56;;;;;;;18.20;5.70;;;11.10;70.10;;;;;;5014879;28;20088;-81
2023/05/12 05:18:23;;;;;;;15.85;5.88;;;11.20;70.20;;;;;;4998888;28;20080;-80
2023/05/12 05:20:50;;;;;;;11.27;5.97;;;11.30;70.30;;;;;;4998623;28;20128;-76
2023/05/12 05:23:24;;;;;;;10.18;5.90;;;11.40;70.10;;;;;;5015144;28;20368;-81
2023/05/12 05:25:52;;;;;;;10.27;6.00;;;11.40;70.80;;;;;;5017598;28;20135;-81
2023/05/12 05:28:19;;;;;;;19.23;6.25;;;11.50;70.00;;;;;;5001358;28;20051;-82
2023/05/12 05:30:46;;;;;;;14.05;5.50;;;11.60;70.20;;;;;;4997087;28;20142;-79
2023/05/12 05:33:12;;;;;;;11.35;5.75;;;11.70;70.50;;;;;;5001093;28;20052;-84
2023/05/12 05:35:40;;;;;;;10.65;6.18;;;11.70;69.80;;;;;;5012250;28;20058;-79
2023/05/12 05:38:07;;;;;;;14.90;6.07;;;11.80;69.40;;;;;;5001352;28;20048;-80
2023/05/12 05:40:34;;;;;;;10.65;5.45;;;12.00;69.00;;;;;;5010696;28;20052;-76
2023/05/12 05:43:18;;;;;;;12.52;5.60;;;12.10;68.90;;;;;;5004886;28;20156;-76
2023/05/12 05:45:45;;;;;;;14.45;5.72;;;12.20;69.00;;;;;;5016040;28;20849;-75
2023/05/12 05:48:12;;;;;;;19.98;5.97;;;12.30;68.10;;;;;;5010542;28;20516;-75
2023/05/12 05:50:39;;;;;;;18.45;5.93;;;12.50;68.40;;;;;;5017687;28;20054;-75
2023/05/12 05:53:06;;;;;;;8.38;5.38;;;12.60;67.70;;;;;;5004108;28;20103;-75
2023/05/12 05:55:33;;;;;;;11.98;5.97;;;12.80;67.60;;;;;;4995409;28;20061;-75
2023/05/12 05:57:59;;;;;;;10.00;4.93;;;12.90;67.20;;;;;;5006625;28;20049;-75
2023/05/12 06:00:26;;;;;;;12.32;5.70;;;13.10;66.40;;;;;;4995488;28;20931;-75
2023/05/12 06:02:53;;;;;;;13.57;4.97;;;13.30;65.90;;;;;;4997633;28;20136;-75
2023/05/12 06:05:20;;;;;;;9.23;4.82;;;13.50;64.00;;;;;;5003572;28;20049;-75
2023/05/12 06:07:48;;;;;;;10.32;4.57;;;13.80;62.20;;;;;;4995035;28;20108;-75
2023/05/12 06:10:16;;;;;;;7.78;5.00;;;14.10;62.90;;;;;;5018441;28;20052;-75
2023/05/12 06:12:43;;;;;;;12.02;5.30;;;14.40;61.80;;;;;;5011178;28;20049;-75
2023/05/12 06:15:10;;;;;;;7.80;4.72;;;14.80;60.10;;;;;;5014848;28;20434;-75
2023/05/12 06:17:37;;;;;;;13.18;4.85;;;15.10;59.20;;;;;;5016677;28;20054;-75
2023/05/12 06:20:05;;;;;;;15.02;4.88;;;15.50;58.60;;;;;;5001322;28;20422;-76
2023/05/12 06:22:33;;;;;;;11.75;4.15;;;15.90;57.60;;;;;;5000212;28;20061;-75
2023/05/12 06:25:01;;;;;;;11.25;4.45;;;16.30;57.40;;;;;;4995316;28;20144;-75
2023/05/12 06:27:28;;;;;;;10.35;4.35;;;16.70;56.90;;;;;;4992156;28;20056;-75
2023/05/12 06:29:55;;;;;;;7.53;4.40;;;17.20;55.80;;;;;;4991819;28;20084;-75
2023/05/12 06:32:21;;;;;;;9.57;4.57;;;17.70;54.90;;;;;;5000509;28;20448;-75
2023/05/12 06:34:48;;;;;;;9.13;4.38;;;18.30;53.90;;;;;;5010979;28;20411;-76
2023/05/12 06:37:15;;;;;;;11.45;4.70;;;18.80;52.00;;;;;;5006751;28;20050;-75
2023/05/12 06:39:42;;;;;;;11.02;4.00;;;19.40;51.20;;;;;;4991512;28;20096;-76
2023/05/12 06:42:10;;;;;;;9.73;4.57;;;19.80;49.80;;;;;;5015451;28;20129;-76
2023/05/12 06:44:37;;;;;;;9.70;4.32;;;20.40;48.70;;;;;;5018728;28;20474;-76
2023/05/12 06:47:07;;;;;;;9.93;3.60;;;20.90;47.70;;;;;;4993202;28;20045;-76
2023/05/12 06:49:35;;;;;;;11.43;4.30;;;21.60;46.80;;;;;;4995929;28;20375;-76
2023/05/12 06:52:04;;;;;;;9.77;4.57;;;21.90;45.20;;;;;;4995396;28;20071;-77
2023/05/12 06:54:31;;;;;;;9.20;4.40;;;22.40;45.00;;;;;;5013310;28;20081;-76
2023/05/12 06:56:58;;;;;;;7.50;4.00;;;22.90;44.10;;;;;;5000295;28;20049;-76
2023/05/12 06:59:25;;;;;;;6.97;4.13;;;23.30;43.70;;;;;;5013172;28;20599;-76
2023/05/12 07:01:52;;;;;;;13.20;4.60;;;23.60;42.90;;;;;;5013539;28;20049;-75
2023/05/12 07:04:18;;;;;;;13.82;4.72;;;23.80;42.80;;;;;;5010955;28;20062;-77
2023/05/12 07:06:45;;;;;;;9.48;4.05;;;24.30;42.00;;;;;;5023288;28;20053;-75
2023/05/12 07:09:13;;;;;;;8.18;4.35;;;24.60;42.20;;;;;;5015601;28;20509;-76
2023/05/12 07:11:39;;;;;;;21.70;4.55;;;24.80;41.70;;;;;;4998399;28;20046;-76
2023/05/12 07:14:06;;;;;;;8.02;4.13;;;24.70;41.90;;;;;;4999886;28;20406;-75
2023/05/12 07:16:33;;;;;;;10.52;4.45;;;24.90;41.40;;;;;;5016476;28;20057;-75
2023/05/12 07:19:00;;;;;;;7.97;4.18;;;25.00;41.60;;;;;;5017636;28;20118;-76
2023/05/12 07:21:28;;;;;;;6.47;4.30;;;25.00;41.40;;;;;;5019724;28;20058;-77
2023/05/12 07:23:55;;;;;;;10.55;3.90;;;25.10;41.70;;;;;;4998222;28;20755;-74
2023/05/12 07:26:23;;;;;;;7.78;3.90;;;25.20;41.90;;;;;;5018936;28;20054;-77
2023/05/12 07:28:49;;;;;;;9.68;4.00;;;25.20;43.00;;;;;;4997738;28;20073;-75
2023/05/12 07:31:16;;;;;;;6.70;4.25;;;25.40;42.60;;;;;;5005583;28;20503;-75
2023/05/12 07:33:43;;;;;;;15.20;4.43;;;25.30;42.50;;;;;;5014421;28;20564;-74
2023/05/12 07:36:10;;;;;;;14.85;4.30;;;25.30;43.40;;;;;;5009297;28;20046;-75
2023/05/12 07:38:37;;;;;;;7.43;3.95;;;25.40;43.10;;;;;;4999750;28;20057;-74
2023/05/12 07:41:04;;;;;;;8.48;4.43;;;25.60;43.70;;;;;;5016248;28;20068;-75
2023/05/12 07:43:31;;;;;;;7.93;3.95;;;25.70;42.50;;;;;;5020592;28;20098;-75
2023/05/12 07:45:59;;;;;;;8.60;3.97;;;26.00;42.60;;;;;;5009398;28;20462;-75
2023/05/12 07:48:26;;;;;;;9.25;4.05;;;26.10;42.50;;;;;;4993612;28;20133;-75
2023/05/12 07:50:53;;;;;;;6.22;3.53;;;26.30;42.40;;;;;;5004420;28;20545;-75
2023/05/12 07:53:20;;;;;;;5.43;3.92;;;26.40;42.00;;;;;;5012877;28;20050;-75
2023/05/12 07:55:47;;;;;;;6.88;4.38;;;26.30;42.40;;;;;;5008916;28;20140;-75
2023/05/12 07:58:14;;;;;;;9.27;3.85;;;26.60;42.00;;;;;;4994470;28;20048;-75
2023/05/12 08:00:41;;;;;;;9.82;4.18;;;27.10;42.80;;;;;;5002939;28;20494;-75
2023/05/12 08:03:08;;;;;;;13.73;4.15;;;27.30;40.60;;;;;;4993382;28;20045;-75
2023/05/12 08:05:35;;;;;;;11.13;4.47;;;27.60;40.20;;;;;;5008466;28;20145;-75
2023/05/12 08:08:02;;;;;;;15.88;4.40;;;27.60;40.30;;;;;;4999748;28;20057;-75
2023/05/12 08:10:31;;;;;;;7.70;3.78;;;27.40;40.50;;;;;;5010252;28;20518;-77
2023/05/12 08:12:58;;;;;;;10.48;3.85;;;27.60;40.20;;;;;;4998808;28;20353;-78
2023/05/12 08:15:25;;;;;;;12.32;4.50;;;27.80;40.20;;;;;;5008266;28;20065;-77
2023/05/12 08:17:51;;;;;;;7.13;3.20;;;28.10;40.00;;;;;;4997658;28;20053;-77
2023/05/12 08:20:19;;;;;;;9.38;4.40;;;28.20;39.60;;;;;;5011502;28;20477;-78
2023/05/12 08:22:46;;;;;;;6.70;3.65;;;28.30;39.80;;;;;;5005573;28;20052;-77
2023/05/12 08:25:13;;;;;;;12.30;4.10;;;28.50;38.80;;;;;;5012507;28;20379;-74
2023/05/12 08:27:40;;;;;;;11.13;3.58;;;28.70;38.30;;;;;;5009081;28;20063;-75
2023/05/12 08:30:08;;;;;;;7.22;3.95;;;28.80;39.50;;;;;;5016325;28;20052;-74
2023/05/12 08:32:35;;;;;;;6.47;3.40;;;28.90;38.70;;;;;;4991816;28;20050;-75
2023/05/12 08:35:02;;;;;;;11.13;4.45;;;29.20;38.60;;;;;;5005441;28;20675;-75
2023/05/12 08:37:30;;;;;;;7.95;4.13;;;29.40;38.20;;;;;;5003508;28;20546;-75
2023/05/12 08:40:00;;;;;;;6.10;3.83;;;29.50;37.10;;;;;;5011357;28;20490;-75
2023/05/12 08:42:36;;;;;;;8.98;3.90;;;29.40;37.50;;;;;;5015064;28;20046;-75
2023/05/12 08:45:03;;;;;;;8.48;3.75;;;29.50;37.30;;;;;;4992916;28;20057;-74
2023/05/12 08:47:32;;;;;;;9.45;3.42;;;29.70;37.70;;;;;;4995267;28;20143;-74
2023/05/12 08:50:03;;;;;;;6.78;3.60;;;30.00;36.40;;;;;;5010555;28;20120;-75
2023/05/12 08:52:34;;;;;;;5.40;3.45;;;29.90;35.80;;;;;;4992241;28;20049;-74
2023/05/12 08:55:03;;;;;;;6.28;3.83;;;29.70;36.00;;;;;;5010553;28;20046;-73
2023/05/12 08:57:30;;;;;;;6.60;3.40;;;29.80;36.60;;;;;;5009554;28;20085;-73
2023/05/12 08:59:58;;;;;;;5.70;3.63;;;30.20;36.60;;;;;;5017864;28;20107;-73
2023/05/12 09:02:27;;;;;;;11.95;3.63;;;30.20;35.90;;;;;;4994005;28;20137;-73
2023/05/12 09:05:08;;;;;;;7.65;4.20;;;30.40;36.40;;;;;;5019063;28;20517;-73
2023/05/12 09:07:38;;;;;;;6.68;3.28;;;30.10;34.90;;;;;;4998617;28;20634;-73
2023/05/12 09:10:08;;;;;;;6.30;3.50;;;30.10;36.70;;;;;;5017124;28;20564;-75
2023/05/12 09:12:46;;;;;;;11.93;4.07;;;30.20;36.20;;;;;;5011599;28;20104;-75
2023/05/12 09:15:22;;;;;;;8.55;3.80;;;30.50;35.30;;;;;;5013724;28;20057;-75
2023/05/12 09:17:49;;;;;;;6.93;3.63;;;30.30;35.60;;;;;;5018890;28;20401;-75
2023/05/12 09:20:16;;;;;;;9.60;3.30;;;30.70;35.70;;;;;;4991800;28;20514;-75
2023/05/12 09:22:57;;;;;;;9.65;3.30;;;30.80;35.30;;;;;;5003096;28;20405;-75
2023/05/12 09:25:24;;;;;;;6.80;3.03;;;30.90;34.90;;;;;;5005391;28;20145;-75
2023/05/12 09:27:55;;;;;;;7.78;3.30;;;30.70;34.80;;;;;;5007683;28;20045;-75
2023/05/12 09:30:30;;;;;;;9.07;3.28;;;30.80;34.60;;;;;;5022242;28;20060;-75
2023/05/12 09:33:07;;;;;;;6.75;3.30;;;30.60;34.00;;;;;;5015558;28;20053;-75
2023/05/12 09:35:39;;;;;;;7.25;3.30;;;30.90;34.90;;;;;;4998620;28;20561;-75
2023/05/12 09:38:11;;;;;;;8.65;3.45;;;31.00;35.50;;;;;;5010981;28;20075;-75
2023/05/12 09:40:38;;;;;;;7.32;3.65;;;31.00;34.70;;;;;;5006992;28;20050;-75
2023/05/12 09:43:06;;;;;;;9.50;3.50;;;31.40;35.00;;;;;;5025663;28;20065;-74
2023/05/12 09:45:37;;;;;;;5.45;3.40;;;31.30;34.60;;;;;;5018926;28;20132;-75
2023/05/12 09:48:12;;;;;;;12.35;4.03;;;30.20;36.30;;;;;;4998265;28;20057;-75
2023/05/12 09:50:50;;;;;;;7.38;3.60;;;29.70;35.10;;;;;;4992087;28;20362;-75
2023/05/12 09:53:18;;;;;;;5.63;3.58;;;29.50;36.50;;;;;;4998899;28;20529;-74
2023/05/12 09:55:46;;;;;;;5.13;3.28;;;29.60;36.20;;;;;;5008805;28;20049;-81
2023/05/12 09:58:15;;;;;;;5.30;3.58;;;30.40;34.50;;;;;;5001796;28;20041;-81
2023/05/12 10:00:42;;;;;;;4.95;3.45;;;30.10;35.00;;;;;;5016456;28;20433;-81
2023/05/12 10:03:32;;;;;;;10.68;3.58;;;29.60;37.60;;;;;;5006428;28;20077;-84
2023/05/12 10:06:01;;;;;;;7.93;3.60;;;31.10;34.50;;;;;;5013020;28;20157;-84
2023/05/12 10:08:43;;;;;;;7.35;3.50;;;31.70;34.30;;;;;;5006411;28;20424;-84
2023/05/12 10:11:11;;;;;;;8.65;4.28;;;32.40;33.60;;;;;;5000647;28;20053;-84
2023/05/12 10:13:38;;;;;;;14.82;4.90;;;32.60;33.90;;;;;;5009691;28;20521;-84
2023/05/12 10:16:06;;;;;;;6.43;3.20;;;32.20;34.10;;;;;;5015735;28;20430;-84
2023/05/12 10:18:33;;;;;;;10.70;3.47;;;32.70;33.20;;;;;;5019358;28;20060;-84
2023/05/12 10:21:03;;;;;;;10.38;3.88;;;33.20;33.70;;;;;;5022278;28;20049;-84
2023/05/12 10:23:30;;;;;;;7.80;3.85;;;33.30;33.20;;;;;;5004034;28;20049;-84
2023/05/12 10:26:01;;;;;;;5.47;3.65;;;33.50;32.40;;;;;;5021697;28;20357;-84
2023/05/12 10:28:29;;;;;;;5.32;3.40;;;33.60;32.20;;;;;;4993626;28;20061;-84
2023/05/12 10:30:57;;;;;;;8.80;3.30;;;33.60;32.30;;;;;;5016202;28;20385;-84
2023/05/12 10:33:24;;;;;;;9.02;3.10;;;33.40;32.50;;;;;;5015714;28;20569;-84
2023/05/12 10:35:52;;;;;;;4.18;3.58;;;33.70;31.60;;;;;;5000515;28;20060;-83
2023/05/12 10:38:19;;;;;;;6.05;2.90;;;33.90;31.50;;;;;;5015126;28;20049;-82
2023/05/12 10:41:00;;;;;;;5.95;3.25;;;33.80;30.70;;;;;;4996048;28;20053;-84
2023/05/12 10:43:37;;;;;;;21.10;3.63;;;34.10;30.60;;;;;;5028493;28;20393;-84
2023/05/12 10:46:18;;;;;;;10.70;3.05;;;34.50;30.70;;;;;;5016465;28;20044;-83
2023/05/12 10:51:58;;;;;;;5.68;2.70;;;34.90;30.80;;;;;;4967997;28;20101;-82
2023/05/12 10:54:25;;;;;;;5.90;3.53;;;34.70;29.40;;;;;;4951997;28;20470;-83
2023/05/12 10:56:58;;;;;;;3.60;2.83;;;34.10;29.60;;;;;;4948044;28;20053;-83
2023/05/12 10:59:26;;;;;;;6.72;3.42;;;34.10;30.50;;;;;;4958688;28;20058;-83
2023/05/12 11:02:01;;;;;;;5.97;3.22;;;34.30;30.50;;;;;;4945884;28;20055;-82
2023/05/12 11:04:51;;;;;;;7.50;3.22;;;34.30;30.20;;;;;;4951691;28;20097;-83
2023/05/12 11:07:21;;;;;;;4.60;3.00;;;34.10;30.70;;;;;;4949519;28;20046;-83
2023/05/12 11:09:50;;;;;;;6.35;2.72;;;34.30;30.70;;;;;;4951787;28;20053;-83
2023/05/12 11:12:26;;;;;;;;;;;33.50;27.20;;;;;;4968661;28;20404;-83
2023/05/12 11:14:53;;;;;;;6.40;3.08;;;32.60;31.10;;;;;;4960723;28;19933;-83
2023/05/12 11:17:19;;;;;;;6.20;2.80;;;32.40;31.40;;;;;;4948605;28;20412;-83
2023/05/12 11:19:48;;;;;;;8.18;3.35;;;32.70;31.70;;;;;;4955956;28;20045;-83
2023/05/12 11:22:20;;;;;;;5.85;2.83;;;33.00;29.70;;;;;;4956434;28;20555;-83
2023/05/12 11:24:48;;;;;;;14.50;3.58;;;33.10;30.10;;;;;;4972300;28;20047;-83
2023/05/12 11:27:16;;;;;;;8.38;3.03;;;33.30;30.50;;;;;;4976511;28;20046;-83
2023/05/12 11:29:53;;;;;;;4.60;3.33;;;33.20;30.50;;;;;;4951169;28;20051;-83
2023/05/12 11:32:20;;;;;;;7.45;3.28;;;33.40;29.70;;;;;;4964365;28;20047;-84
2023/05/12 11:40:22;;;;;;;5.90;3.30;;;32.60;29.90;;;;;;5012098;28;20053;-84
2023/05/12 11:42:54;;;;;;;9.57;2.95;;;32.70;29.70;;;;;;4994619;28;20132;-83
2023/05/12 11:45:29;;;;;;;4.93;3.13;;;33.30;28.50;;;;;;4987685;28;20045;-83
2023/05/12 11:48:10;;;;;;;7.90;3.17;;;33.50;29.10;;;;;;5009872;28;20060;-88
2023/05/12 11:50:42;;;;;;;4.47;3.00;;;33.70;28.60;;;;;;5009941;28;20057;-84
2023/05/12 11:53:12;;;;;;;8.32;3.47;;;34.10;29.40;;;;;;4992322;28;20149;-85
2023/05/12 11:55:55;;;;;;;9.40;3.20;;;34.20;28.00;;;;;;5003542;28;20122;-86
2023/05/12 11:58:29;;;;;;;5.43;3.00;;;34.00;27.70;;;;;;4990296;28;20081;-87
2023/05/12 12:01:07;;;;;;;11.17;3.60;;;33.50;29.30;;;;;;4992717;28;20046;-84
2023/05/12 12:03:46;;;;;;;3.67;3.10;;;33.30;29.10;;;;;;4991486;28;20050;-84
2023/05/12 12:06:13;;;;;;;12.82;3.45;;;33.60;28.90;;;;;;4989601;28;20042;-85
2023/05/12 12:08:55;;;;;;;8.15;3.22;;;32.20;27.10;;;;;;5010026;28;20045;-89
2023/05/12 12:11:23;;;;;;;8.30;2.90;;;31.50;29.50;;;;;;4989308;28;20054;-88
2023/05/12 12:13:55;;;;;;;32.53;4.30;;;31.70;29.50;;;;;;4994998;28;20351;-86
2023/05/12 12:16:31;;;;;;;8.82;3.22;;;32.10;30.00;;;;;;4995452;28;20125;-88
2023/05/12 12:18:58;;;;;;;25.83;6.25;;;32.10;30.00;;;;;;4996011;28;20497;-86
2023/05/12 12:21:25;;;;;;;15.85;3.85;;;32.10;29.50;;;;;;5008194;28;20064;-86
2023/05/12 12:23:52;;;;;;;17.35;3.90;;;32.30;29.30;;;;;;4994333;28;20057;-87
2023/05/12 12:26:20;;;;;;;16.55;3.60;;;32.30;30.20;;;;;;4991206;28;20054;-89
2023/05/12 12:28:47;;;;;;;6.80;2.80;;;32.40;29.30;;;;;;4992198;28;20133;-86
2023/05/12 12:31:15;;;;;;;10.98;3.10;;;32.40;29.70;;;;;;4995856;28;20046;-84
2023/05/12 12:33:42;;;;;;;4.95;3.50;;;32.60;29.70;;;;;;5012844;28;20392;-82
2023/05/12 12:36:09;;;;;;;9.98;3.08;;;32.80;29.50;;;;;;4995699;28;20050;-83
2023/05/12 12:38:36;;;;;;;4.80;3.20;;;32.70;28.90;;;;;;4993918;28;20057;-82
2023/05/12 12:41:04;;;;;;;7.22;3.15;;;32.80;29.30;;;;;;5011846;28;20037;-82
2023/05/12 12:43:31;;;;;;;12.38;4.22;;;32.80;29.40;;;;;;4991752;28;20074;-81
2023/05/12 12:45:58;;;;;;;8.43;3.10;;;32.50;30.00;;;;;;5008487;28;20049;-86
2023/05/12 12:48:27;;;;;;;10.40;3.10;;;32.70;30.00;;;;;;4986455;28;20053;-86
2023/05/12 12:50:54;;;;;;;8.40;3.00;;;32.10;30.10;;;;;;4986648;28;20132;-86
2023/05/12 12:53:21;;;;;;;11.65;3.10;;;31.40;31.10;;;;;;5003914;28;20054;-86
2023/05/12 12:55:48;;;;;;;6.63;3.08;;;30.40;28.50;;;;;;4987360;28;20065;-85
2023/05/12 12:58:15;;;;;;;11.38;3.47;;;29.00;29.00;;;;;;4984876;28;20663;-86